Time;durP1;ratioP1;P1;durP2;ratioP2;P2;SDS_P1;SDS_P2;PMS_P1;PMS_P2;Temp;Humidity;BMP_temperature;BMP_pressure;BME280_temperature;BME280_humidity;BME280_pressure;Samples;Min_cycle;Max_cycle;Signal;HPM_P1;HPM_P2
2021/10/12 00:02:29;;;;;;;59.27;53.43;;;;;;;7.97;97.00;100702.01;5212743;56;1139182;-83
2021/10/12 00:07:34;;;;;;;14.57;8.37;;;;;;;7.99;97.44;100696.17;5127294;57;1141136;-86
2021/10/12 00:12:40;;;;;;;13.87;8.73;;;;;;;8.02;97.59;100684.98;5213431;56;1139037;-84
2021/10/12 00:17:47;;;;;;;11.13;5.90;;;;;;;8.04;97.32;100684.88;5127898;57;1139001;-83
2021/10/12 00:22:53;;;;;;;13.97;6.33;;;;;;;8.07;97.43;100682.06;5213381;56;1139226;-84
2021/10/12 00:27:58;;;;;;;9.10;6.40;;;;;;;8.08;97.46;100681.96;5128495;57;1139002;-83
2021/10/12 00:33:05;;;;;;;15.17;6.80;;;;;;;8.09;97.57;100674.91;5214063;56;1136977;-84
2021/10/12 00:38:11;;;;;;;12.03;5.13;;;;;;;8.05;97.94;100665.03;5127838;57;1139139;-83
2021/10/12 00:43:18;;;;;;;19.50;7.77;;;;;;;8.07;99.94;100672.37;5213447;56;1139155;-86
2021/10/12 00:48:24;;;;;;;10.43;4.73;;;;;;;8.06;98.58;100668.52;5128804;57;1138925;-84
2021/10/12 00:53:30;;;;;;;14.97;8.17;;;;;;;8.05;99.35;100670.77;5234117;56;1139042;-86
2021/10/12 00:58:36;;;;;;;12.77;6.70;;;;;;;8.05;98.82;100663.72;5234079;56;1139084;-86
2021/10/12 01:03:42;;;;;;;9.60;6.47;;;;;;;8.07;99.40;100662.30;5233936;56;1139029;-85
2021/10/12 01:08:47;;;;;;;14.77;5.90;;;;;;;8.06;98.82;100657.50;5234184;56;1137004;-84
2021/10/12 01:13:54;;;;;;;15.53;4.50;;;;;;;8.09;99.00;100657.78;5238447;56;1139035;-84
2021/10/12 01:19:03;;;;;;;11.97;5.40;;;;;;;8.09;100.00;100652.05;5243435;56;1138998;-87
2021/10/12 01:24:10;;;;;;;8.50;4.77;;;;;;;8.08;99.67;100641.60;5243035;56;1141046;-85
2021/10/12 01:29:17;;;;;;;10.67;5.20;;;;;;;8.06;99.05;100647.44;5243132;56;1136887;-84
2021/10/12 01:34:23;;;;;;;10.63;5.03;;;;;;;8.03;98.77;100639.27;5243194;56;1139044;-86
2021/10/12 01:39:29;;;;;;;5.07;3.63;;;;;;;8.01;98.86;100633.72;5242592;56;1139019;-86
2021/10/12 01:44:35;;;;;;;10.07;4.77;;;;;;;7.99;98.30;100627.23;5241983;56;1136929;-84
2021/10/12 01:49:41;;;;;;;8.87;4.63;;;;;;;7.96;98.18;100624.78;5211665;56;1138922;-85
2021/10/12 01:54:48;;;;;;;9.97;4.33;;;;;;;7.93;98.61;100619.74;5155417;57;1136930;-87
2021/10/12 01:59:54;;;;;;;9.20;4.93;;;;;;;7.95;97.99;100622.25;5156264;57;1136908;-85
2021/10/12 02:05:00;;;;;;;9.10;4.30;;;;;;;7.96;98.15;100623.47;5156360;57;1136933;-84
2021/10/12 02:10:06;;;;;;;5.37;3.10;;;;;;;7.97;99.16;100609.83;5156514;57;1136917;-85
2021/10/12 02:15:13;;;;;;;7.87;3.27;;;;;;;7.95;99.56;100607.30;5156604;57;1134784;-86
2021/10/12 02:20:18;;;;;;;6.87;3.30;;;;;;;7.96;99.78;100598.92;5156939;57;1134830;-85
2021/10/12 02:25:24;;;;;;;5.97;3.50;;;;;;;7.98;99.21;100599.20;5156861;57;1134850;-83
2021/10/12 02:30:30;;;;;;;9.93;3.40;;;;;;;8.02;99.07;100598.06;5166421;56;1134923;-82
2021/10/12 02:35:37;;;;;;;3.87;2.70;;;;;;;8.06;99.05;100593.44;5225021;56;1134810;-81
2021/10/12 02:40:43;;;;;;;4.63;3.00;;;;;;;8.05;98.81;100578.11;5243096;56;1134832;-82
2021/10/12 02:45:49;;;;;;;7.60;2.50;;;;;;;8.04;99.06;100579.53;5242962;56;1134926;-82
2021/10/12 02:50:56;;;;;;;7.23;2.47;;;;;;;8.01;98.72;100578.41;5191474;56;1134829;-82
2021/10/12 02:56:02;;;;;;;4.53;2.47;;;;;;;7.94;98.85;100574.50;5156629;57;1135103;-82
2021/10/12 03:01:08;;;;;;;10.05;2.72;;;;;;;7.88;98.30;100570.47;5156037;57;1134848;-83
2021/10/12 03:06:14;;;;;;;5.63;2.67;;;;;;;7.80;98.35;100566.16;5156250;57;1136933;-82
2021/10/12 03:11:20;;;;;;;6.30;2.87;;;;;;;7.71;98.44;100564.98;5156251;57;1134801;-83
2021/10/12 03:16:26;;;;;;;5.53;2.57;;;;;;;7.65;98.91;100574.58;5135543;57;1134862;-83
2021/10/12 03:21:34;;;;;;;6.13;2.67;;;;;;;7.59;98.39;100566.26;5122790;57;1134875;-83
2021/10/12 03:26:40;;;;;;;12.20;3.02;;;;;;;7.51;98.40;100558.84;5122536;57;1134839;-83
2021/10/12 03:31:46;;;;;;;7.33;3.20;;;;;;;7.44;98.62;100552.30;5122825;57;1137128;-83
2021/10/12 03:36:52;;;;;;;7.20;2.70;;;;;;;7.38;98.27;100552.67;5122700;57;1134808;-83
2021/10/12 03:41:58;;;;;;;7.40;2.60;;;;;;;7.34;98.46;100549.86;5122872;57;1132730;-83
2021/10/12 03:47:05;;;;;;;5.03;2.60;;;;;;;7.28;99.34;100542.37;5123319;57;1132950;-82
2021/10/12 03:52:12;;;;;;;8.48;3.15;;;;;;;7.25;98.53;100526.78;5185167;57;1137089;-84
2021/10/12 03:57:17;;;;;;;4.45;2.17;;;;;;;7.22;98.60;100537.02;5178526;56;1136923;-83
2021/10/12 04:02:23;;;;;;;7.60;2.43;;;;;;;7.17;98.75;100531.23;5093166;58;1136171;-83
2021/10/12 04:07:29;;;;;;;8.03;3.13;;;;;;;7.17;98.75;100531.23;5178118;57;1136825;-82
2021/10/12 04:12:35;;;;;;;7.27;3.17;;;;;;;7.15;99.54;100533.11;5093807;57;1136968;-83
2021/10/12 04:17:41;;;;;;;2.93;2.20;;;;;;;7.16;99.26;100530.01;5200454;56;1137003;-82
2021/10/12 04:22:47;;;;;;;9.50;2.93;;;;;;;7.15;99.60;100527.84;5127360;57;1136964;-82
2021/10/12 04:27:53;;;;;;;12.63;3.00;;;;;;;7.15;100.00;100519.95;5213068;56;1136916;-82
2021/10/12 04:32:59;;;;;;;10.70;4.10;;;;;;;7.18;100.00;100517.11;5127288;57;1141420;-81
2021/10/12 04:38:06;;;;;;;5.50;2.70;;;;;;;7.21;100.00;100518.70;5200531;56;1141077;-81
2021/10/12 04:43:13;;;;;;;9.10;3.07;;;;;;;7.23;99.77;100511.56;5165208;56;1139332;-81
2021/10/12 04:48:19;;;;;;;8.47;2.93;;;;;;;7.23;99.31;100503.20;5153440;56;1137280;-82
2021/10/12 04:53:25;;;;;;;4.10;2.33;;;;;;;7.23;99.14;100499.73;5233779;56;1136896;-81
2021/10/12 04:58:32;;;;;;;8.17;3.10;;;;;;;7.23;98.78;100499.26;5233824;56;1136888;-81
2021/10/12 05:03:38;;;;;;;9.70;2.87;;;;;;;7.19;98.57;100502.17;5234117;56;1137424;-81
2021/10/12 05:08:44;;;;;;;5.70;2.73;;;;;;;7.17;98.71;100493.56;5234012;56;1136976;-82
2021/10/12 05:13:51;;;;;;;6.50;1.93;;;;;;;7.15;98.53;100496.28;5196241;56;1137011;-81
2021/10/12 05:18:59;;;;;;;5.47;2.67;;;;;;;7.18;99.01;100509.22;5107302;57;1136913;-80
2021/10/12 05:24:06;;;;;;;8.97;2.77;;;;;;;7.19;98.44;100503.48;5106235;57;1137142;-82
2021/10/12 05:29:13;;;;;;;5.47;2.73;;;;;;;7.15;98.71;100506.80;5103496;57;1136925;-80
2021/10/12 05:34:22;;;;;;;4.10;2.40;;;;;;;7.13;98.56;100508.69;5147295;57;1136964;-82
2021/10/12 05:39:29;;;;;;;4.40;2.40;;;;;;;7.14;98.57;100506.91;5146887;57;1136799;-80
2021/10/12 05:44:35;;;;;;;5.27;2.30;;;;;;;7.15;98.29;100508.59;5147184;57;1136986;-82
2021/10/12 05:49:41;;;;;;;5.70;2.37;;;;;;;7.19;98.21;100514.00;5155621;56;1137477;-82
2021/10/12 06:00:11;;;;;;;2.67;2.20;;;;;;;7.25;97.97;100501.80;5160296;56;1136920;-81
2021/10/12 06:05:20;;;;;;;9.10;3.33;;;;;;;7.25;97.84;100496.53;5212233;56;1137010;-82
2021/10/12 06:10:27;;;;;;;10.37;3.10;;;;;;;7.24;98.03;100502.27;5211758;56;1136903;-82
2021/10/12 06:15:32;;;;;;;5.20;2.40;;;;;;;7.23;98.36;100506.30;5201028;56;1138942;-81
2021/10/12 06:20:39;;;;;;;6.00;3.23;;;;;;;7.25;98.32;100515.79;5156163;57;1136814;-82
2021/10/12 06:25:45;;;;;;;9.00;2.60;;;;;;;7.29;98.46;100517.29;5156090;57;1136993;-82
2021/10/12 06:30:51;;;;;;;6.57;2.50;;;;;;;7.33;98.54;100514.81;5155893;57;1136874;-82
2021/10/12 06:35:57;;;;;;;10.93;2.37;;;;;;;7.33;99.07;100505.60;5155945;57;1137071;-82
2021/10/12 06:41:03;;;;;;;12.80;3.10;;;;;;;7.35;98.68;100506.83;5079616;58;1139015;-81
2021/10/12 06:46:09;;;;;;;8.53;3.13;;;;;;;7.34;98.97;100512.56;5156011;57;1137029;-81
2021/10/12 06:51:15;;;;;;;5.63;2.70;;;;;;;7.36;99.00;100515.94;5199260;56;1134862;-82
2021/10/12 06:56:21;;;;;;;5.77;2.43;;;;;;;7.41;98.69;100519.13;5221535;56;1135079;-81
2021/10/12 07:01:27;;;;;;;2.77;2.02;;;;;;;7.48;98.57;100518.74;5221428;56;1135128;-81
2021/10/12 07:06:33;;;;;;;9.17;3.43;;;;;;;7.55;98.67;100508.17;5221679;56;1134818;-82
2021/10/12 07:11:39;;;;;;;6.17;3.87;;;;;;;7.61;97.98;100486.27;5242325;56;1134772;-82
2021/10/12 07:16:45;;;;;;;6.43;2.00;;;;;;;7.68;97.62;100481.41;5242163;56;1135059;-82
2021/10/12 07:21:51;;;;;;;8.27;2.63;;;;;;;7.71;97.63;100483.85;5223882;56;1135007;-85
2021/10/12 07:26:59;;;;;;;8.40;2.53;;;;;;;7.70;97.21;100484.80;5222646;56;1134734;-86
2021/10/12 07:38:01;;;;;;;9.07;2.37;;;;;;;7.78;97.61;100489.56;5215755;56;1139120;-85
2021/10/12 07:43:07;;;;;;;19.40;2.73;;;;;;;7.88;97.52;100486.69;5156889;57;1136903;-85
2021/10/12 07:48:13;;;;;;;8.80;3.03;;;;;;;7.94;96.88;100479.70;5159755;56;1138930;-85
2021/10/12 07:53:19;;;;;;;4.87;2.40;;;;;;;7.99;96.73;100470.52;5173767;56;1136813;-85
2021/10/12 08:04:30;;;;;;;7.67;2.93;;;;;;;8.14;96.21;100459.42;5176690;57;21083;-83
2021/10/12 08:09:36;;;;;;;8.60;3.00;;;;;;;8.21;95.69;100457.22;5147880;57;1132798;-84
2021/10/12 08:14:46;;;;;;;6.87;2.17;;;;;;;8.27;94.97;100456.78;5152567;56;1137242;-84
2021/10/12 08:19:50;;;;;;;13.33;2.63;;;;;;;8.33;95.02;100454.61;5207663;56;1137137;-83
2021/10/12 08:24:56;;;;;;;7.97;2.07;;;;;;;8.42;94.46;100439.94;5212001;56;1139180;-85
2021/10/12 08:30:02;;;;;;;7.30;2.07;;;;;;;8.62;94.88;100445.13;5212357;56;1136908;-83
2021/10/12 08:35:08;;;;;;;4.90;1.90;;;;;;;8.74;92.85;100432.39;5181221;56;1137264;-82
2021/10/12 08:40:17;;;;;;;5.77;2.53;;;;;;;8.72;92.43;100433.81;5146414;57;1136961;-81
2021/10/12 08:45:23;;;;;;;3.63;2.07;;;;;;;8.62;93.73;100433.27;5190445;56;1137133;-81
2021/10/12 08:50:29;;;;;;;3.17;1.20;;;;;;;8.47;95.11;100435.20;5180777;56;1136958;-82
2021/10/12 08:55:36;;;;;;;1.90;1.37;;;;;;;8.34;95.66;100434.38;5210970;56;1136955;-81
2021/10/12 09:00:41;;;;;;;5.15;2.17;;;;;;;8.22;97.29;100437.36;5189301;56;1136947;-82
2021/10/12 09:06:04;;;;;;;2.40;1.37;;;;;;;8.10;96.08;100430.27;5118475;57;1137177;-83
2021/10/12 09:11:26;;;;;;;2.80;1.87;;;;;;;8.08;96.37;100433.05;5114598;56;1137678;-81
2021/10/12 09:16:46;;;;;;;2.87;1.73;;;;;;;8.06;96.18;100428.83;5071434;57;1136926;-82
2021/10/12 09:21:53;;;;;;;4.83;2.70;;;;;;;8.04;96.46;100425.45;5064711;57;1134818;-83
2021/10/12 09:27:10;;;;;;;3.77;1.90;;;;;;;8.03;96.35;100418.02;5048469;57;1134814;-82
2021/10/12 09:32:22;;;;;;;2.50;1.00;;;;;;;8.04;96.32;100410.95;5055291;58;1134847;-82
2021/10/12 09:37:25;;;;;;;3.30;1.60;;;;;;;8.08;96.94;100401.91;5055104;58;1134945;-82
2021/10/12 09:42:35;;;;;;;11.30;6.10;;;;;;;8.15;97.01;100391.30;5055637;58;1135036;-83
2021/10/12 09:47:41;;;;;;;4.93;4.33;;;;;;;8.27;97.52;100386.48;5054562;58;1136993;-82
2021/10/12 09:52:46;;;;;;;13.80;7.60;;;;;;;8.44;97.37;100379.59;5059386;58;1134862;-84
2021/10/12 09:57:54;;;;;;;5.23;1.80;;;;;;;8.58;97.68;100361.47;5073343;57;1137025;-83
2021/10/12 10:03:02;;;;;;;3.67;1.93;;;;;;;8.63;95.79;100363.78;5060863;57;1135113;-83
2021/10/12 10:08:08;;;;;;;4.77;3.50;;;;;;;8.57;95.53;100353.66;5090417;57;1134845;-82
2021/10/12 10:13:18;;;;;;;5.30;1.87;;;;;;;8.58;95.53;100354.03;5077481;57;1135173;-83
2021/10/12 10:18:24;;;;;;;8.00;5.20;;;;;;;8.58;95.17;100347.44;5059436;57;1133058;-83
2021/10/12 10:24:22;;;;;;;3.02;1.60;;;;;;;8.55;95.53;100345.89;5073158;57;1136909;-83
2021/10/12 10:29:39;;;;;;;6.73;1.90;;;;;;;8.57;95.54;100342.64;4985566;58;1136926;-83
2021/10/12 10:35:01;;;;;;;24.50;10.10;;;;;;;8.59;95.76;100336.79;4763386;61;1136973;-82
2021/10/12 10:40:26;;;;;;;7.80;2.30;;;;;;;8.60;95.79;100333.68;4822212;61;1141236;-82
2021/10/12 10:45:48;;;;;;;2.90;1.33;;;;;;;8.63;95.77;100324.23;4822353;61;1136981;-82
2021/10/12 10:50:54;;;;;;;23.00;6.17;;;;;;;8.66;95.86;100316.11;4822263;60;1137153;-83
2021/10/12 10:56:03;;;;;;;2.80;1.33;;;;;;;8.65;95.80;100311.31;4822394;60;1139107;-83
2021/10/12 11:01:08;;;;;;;5.23;2.63;;;;;;;8.68;95.98;100307.14;4822411;60;1136965;-81
2021/10/12 11:06:17;;;;;;;11.57;2.07;;;;;;;8.67;95.71;100301.98;4822272;60;1136983;-81
2021/10/12 11:11:22;;;;;;;8.13;3.30;;;;;;;8.63;95.89;100299.19;4821761;61;1138996;-82
2021/10/12 11:16:37;;;;;;;3.45;2.08;;;;;;;8.53;97.16;100292.92;4821217;61;1137293;-81
2021/10/12 11:21:43;;;;;;;7.27;2.00;;;;;;;8.52;97.15;100289.91;4819264;60;1137110;-83
2021/10/12 11:26:54;;;;;;;4.27;2.57;;;;;;;8.56;98.74;100278.17;4820286;60;1137235;-83
2021/10/12 11:32:05;;;;;;;5.47;3.07;;;;;;;8.68;99.13;100278.14;4802480;61;1136950;-82
2021/10/12 11:37:13;;;;;;;11.97;5.67;;;;;;;8.94;99.00;100271.41;4759030;61;1134921;-82
2021/10/12 11:42:21;;;;;;;6.43;2.43;;;;;;;9.12;97.45;100272.66;4759140;61;1137153;-83
2021/10/12 11:47:29;;;;;;;2.40;1.77;;;;;;;9.17;95.49;100264.74;4758857;61;1134994;-82
2021/10/12 11:52:35;;;;;;;4.43;1.90;;;;;;;9.15;95.53;100263.20;4759582;61;1135153;-85
2021/10/12 11:57:49;;;;;;;5.30;4.03;;;;;;;9.42;95.36;100246.58;4759637;61;1134935;-84
2021/10/12 12:02:51;;;;;;;8.35;3.80;;;;;;;9.71;93.51;100240.83;4759444;61;1134906;-85
2021/10/12 12:07:57;;;;;;;4.60;2.27;;;;;;;9.75;93.48;100238.31;4759637;61;1134904;-83
2021/10/12 12:13:03;;;;;;;5.73;4.37;;;;;;;9.73;91.74;100226.55;4759664;61;1134985;-83
2021/10/12 12:18:22;;;;;;;1.60;1.50;;;;;;;9.71;90.65;100222.34;4759227;61;1134986;-83
2021/10/12 12:23:37;;;;;;;7.17;5.40;;;;;;;9.71;91.05;100217.06;4759387;61;1135207;-86
2021/10/12 12:28:44;;;;;;;1.10;1.10;;;;;;;9.75;90.97;100210.59;4760092;61;1133272;-86
2021/10/12 12:33:56;;;;;;;2.70;2.00;;;;;;;9.73;89.25;100212.02;4706749;61;1132870;-85
2021/10/12 12:39:07;;;;;;;9.80;4.15;;;;;;;9.67;89.04;100208.53;4688022;63;1136935;-85
2021/10/12 12:44:17;;;;;;;3.40;1.10;;;;;;;9.65;88.05;100201.21;4744441;62;1137003;-85
2021/10/12 12:49:25;;;;;;;1.97;1.27;;;;;;;9.62;88.02;100200.63;4757953;62;1136877;-86
2021/10/12 12:54:47;;;;;;;15.35;10.35;;;;;;;9.64;89.16;100191.61;4765026;62;1136848;-85
2021/10/12 12:59:48;;;;;;;1.43;1.37;;;;;;;9.86;89.75;100191.59;4759115;62;1141118;-85
2021/10/12 13:04:54;;;;;;;1.90;1.23;;;;;;;10.03;86.37;100191.57;4763718;62;1136947;-85
2021/10/12 13:10:00;;;;;;;1.90;1.03;;;;;;;10.00;86.82;100189.17;4765176;62;1139043;-84
2021/10/12 13:15:06;;;;;;;4.17;1.10;;;;;;;10.02;86.36;100191.69;4765220;62;1139085;-84
2021/10/12 13:20:14;;;;;;;1.13;1.00;;;;;;;10.01;85.86;100180.77;4765464;62;1139260;-88
2021/10/12 13:25:21;;;;;;;10.47;5.60;;;;;;;10.08;85.69;100169.56;4765749;62;1139398;-87
2021/10/12 13:30:27;;;;;;;2.73;1.63;;;;;;;10.52;87.51;100169.09;4765758;62;1141454;-86
2021/10/12 13:35:33;;;;;;;3.70;1.83;;;;;;;10.69;86.34;100155.80;4790447;61;1139247;-85
2021/10/12 13:40:39;;;;;;;29.73;20.07;;;;;;;10.63;82.88;100171.69;4741902;62;1139049;-86
2021/10/12 13:45:45;;;;;;;6.13;5.50;;;;;;;10.32;82.82;100186.59;4832003;61;1143112;-86
2021/10/12 13:50:51;;;;;;;19.87;13.30;;;;;;;9.73;84.14;100192.70;4834145;61;1139179;-87
2021/10/12 13:55:57;;;;;;;20.63;14.00;;;;;;;9.22;85.56;100209.47;4836617;61;1141089;-84
2021/10/12 14:01:06;;;;;;;2.20;1.53;;;;;;;8.85;87.28;100215.41;4807304;61;1141125;-83
2021/10/12 14:06:12;;;;;;;487.23;296.37;;;;;;;8.62;87.60;100221.06;4793800;61;1136870;-82
2021/10/12 14:11:18;;;;;;;795.43;496.83;;;;;;;8.50;88.49;100225.45;4838676;61;1145390;-83
2021/10/12 14:16:24;;;;;;;278.60;146.33;;;;;;;8.43;89.13;100231.63;4838889;61;1145242;-82
2021/10/12 14:21:30;;;;;;;478.30;286.27;;;;;;;8.41;89.46;100211.61;4825656;61;1145219;-82
2021/10/12 14:26:39;;;;;;;125.70;82.33;;;;;;;8.41;89.78;100216.41;4740081;61;1145124;-82
2021/10/12 14:31:45;;;;;;;69.53;51.53;;;;;;;8.48;90.14;100207.59;4798517;61;1143459;-82
2021/10/12 14:36:51;;;;;;;38.53;26.87;;;;;;;8.67;91.66;100206.59;4788597;60;1141529;-81
2021/10/12 14:41:58;;;;;;;9.40;8.33;;;;;;;9.05;92.63;100198.89;4764097;62;1141154;-82
2021/10/12 14:47:04;;;;;;;130.73;53.70;;;;;;;9.16;91.04;100210.80;4792743;61;1136885;-83
2021/10/12 14:52:10;;;;;;;117.30;51.70;;;;;;;9.00;90.57;100209.81;4794589;61;1143193;-83
2021/10/12 14:57:16;;;;;;;50.47;25.97;;;;;;;8.81;90.67;100217.42;4804566;61;1143185;-83
2021/10/12 15:02:22;;;;;;;41.03;28.13;;;;;;;8.65;91.02;100207.18;4750496;62;1141024;-82
2021/10/12 15:07:28;;;;;;;7.00;5.53;;;;;;;8.57;91.02;100212.64;4765738;62;1141128;-83
2021/10/12 15:12:35;;;;;;;9.17;3.53;;;;;;;8.53;91.15;100210.73;4763170;61;1137051;-83
2021/10/12 15:17:42;;;;;;;8.37;2.90;;;;;;;8.46;91.15;100207.70;4838244;61;1137135;-83
2021/10/12 15:22:48;;;;;;;3.17;2.10;;;;;;;8.43;91.46;100202.64;4837904;60;1137168;-83
2021/10/12 15:27:53;;;;;;;3.27;2.50;;;;;;;8.48;92.13;100198.84;4838009;61;1135175;-82
2021/10/12 15:32:59;;;;;;;15.23;9.97;;;;;;;8.65;93.63;100196.63;4833957;61;1134832;-83
2021/10/12 15:38:05;;;;;;;59.07;32.63;;;;;;;9.48;92.33;100191.97;4825390;60;1137488;-83
2021/10/12 15:43:11;;;;;;;9.93;6.53;;;;;;;9.22;90.40;100199.76;4836030;60;1139540;-83
2021/10/12 15:48:17;;;;;;;6.73;4.07;;;;;;;8.95;90.32;100193.96;4881507;59;1134859;-83
2021/10/12 15:53:23;;;;;;;8.63;4.90;;;;;;;8.78;90.29;100208.42;4836822;60;1134872;-83
2021/10/12 15:58:29;;;;;;;15.80;5.50;;;;;;;8.58;90.20;100214.33;4858343;60;1134889;-83
2021/10/12 16:03:36;;;;;;;7.97;4.40;;;;;;;8.46;90.26;100218.72;4860360;60;1137079;-83
2021/10/12 16:08:42;;;;;;;7.40;3.60;;;;;;;8.32;90.30;100229.42;4858208;59;1134839;-84
2021/10/12 16:13:48;;;;;;;4.77;3.23;;;;;;;8.19;90.40;100232.55;4884469;60;1134817;-83
2021/10/12 16:20:52;;;;;;;11.10;6.90;;;;;;;8.14;90.30;100236.83;4853585;59;1135037;-83
2021/10/12 16:24:16;;;;;;;50.67;24.00;;;;;;;8.00;90.21;100238.30;4867925;60;1137025;-83
2021/10/12 16:29:25;;;;;;;70.93;31.37;;;;;;;7.88;90.34;100240.02;4896227;60;1138986;-84
2021/10/12 16:34:32;;;;;;;6.57;4.10;;;;;;;7.77;90.34;100247.84;4896347;60;1139097;-87
2021/10/12 16:39:47;;;;;;;29.17;14.47;;;;;;;7.62;90.30;100251.55;4898377;60;1132762;-88
2021/10/12 16:44:49;;;;;;;24.10;12.47;;;;;;;7.52;90.40;100260.53;4739748;60;1141052;-86
2021/10/12 16:49:56;;;;;;;27.30;12.03;;;;;;;7.39;90.57;100260.53;4836055;60;1140977;-85
2021/10/12 16:55:02;;;;;;;32.20;11.47;;;;;;;7.36;90.84;100268.63;4840727;60;1141145;-86
2021/10/12 17:00:09;;;;;;;300.55;171.25;;;;;;;7.30;90.99;100280.06;4822163;60;1142990;-86
2021/10/12 17:05:17;;;;;;;678.13;436.67;;;;;;;7.30;90.99;100280.06;4840426;60;1145399;-85
2021/10/12 17:10:22;;;;;;;201.87;117.67;;;;;;;7.24;90.81;100280.00;4821719;60;1145061;-81
2021/10/12 17:15:28;;;;;;;114.83;72.40;;;;;;;7.17;90.91;100277.90;4824876;61;21608;-81
2021/10/12 17:20:33;;;;;;;56.80;36.67;;;;;;;7.08;90.68;100290.33;4829861;61;21169;-88
2021/10/12 17:25:40;;;;;;;123.80;85.23;;;;;;;7.02;90.92;100296.39;4854129;60;1134983;-86
2021/10/12 17:30:46;;;;;;;97.77;87.53;;;;;;;6.97;91.20;100301.56;4843199;59;1141293;-88
2021/10/12 17:35:53;;;;;;;94.37;33.20;;;;;;;6.91;91.37;100303.27;4839883;60;1139137;-83
2021/10/12 17:41:01;;;;;;;13.97;5.87;;;;;;;6.87;91.47;100311.86;4829543;60;1139264;-83
2021/10/12 17:46:06;;;;;;;5.67;3.37;;;;;;;6.83;91.40;100322.66;4925275;59;1136939;-82
2021/10/12 17:51:13;;;;;;;7.67;3.63;;;;;;;6.75;91.33;100317.89;4918395;59;1134881;-86
2021/10/12 17:56:19;;;;;;;4.37;3.37;;;;;;;6.76;91.29;100332.72;4864265;59;1134903;-84
2021/10/12 18:01:26;;;;;;;6.17;3.47;;;;;;;6.69;91.49;100324.41;4831992;60;1135101;-83
2021/10/12 18:06:36;;;;;;;11.10;4.97;;;;;;;6.62;91.38;100332.30;4836379;60;1134940;-83
2021/10/12 18:11:48;;;;;;;27.63;10.60;;;;;;;6.58;91.47;100336.05;4851079;59;1134942;-85
2021/10/12 18:16:51;;;;;;;70.10;23.83;;;;;;;6.52;91.78;100331.68;4850143;60;1137095;-86
2021/10/12 18:21:57;;;;;;;14.77;6.37;;;;;;;6.55;91.94;100337.59;4847050;59;1140989;-86
2021/10/12 18:27:03;;;;;;;16.27;6.73;;;;;;;6.49;91.64;100338.44;4893341;59;1138986;-84
2021/10/12 18:32:10;;;;;;;13.87;5.43;;;;;;;6.47;91.71;100350.82;4892156;59;1138908;-83
2021/10/12 18:37:16;;;;;;;8.83;4.83;;;;;;;6.45;91.78;100354.02;4891995;59;1139058;-83
2021/10/12 18:42:22;;;;;;;26.00;7.63;;;;;;;6.43;91.93;100359.36;4848512;60;1136868;-83
2021/10/12 18:47:28;;;;;;;17.50;11.97;;;;;;;6.41;92.09;100359.11;4835839;60;1138954;-84
2021/10/12 18:52:34;;;;;;;77.10;23.87;;;;;;;6.37;92.15;100357.61;4847339;60;1141036;-82
2021/10/12 18:57:41;;;;;;;17.43;8.73;;;;;;;6.36;92.54;100367.27;4849594;60;1141334;-81
2021/10/12 19:02:47;;;;;;;13.60;5.33;;;;;;;6.32;92.88;100369.70;4849470;60;1139024;-83
2021/10/12 19:07:53;;;;;;;7.63;3.90;;;;;;;6.31;92.98;100378.05;4849776;60;1138927;-86
2021/10/12 19:12:58;;;;;;;6.27;4.03;;;;;;;6.31;93.28;100371.95;4856731;60;1137077;-81
2021/10/12 19:18:05;;;;;;;11.00;5.87;;;;;;;6.27;93.39;100372.61;4841475;60;1137119;-84
2021/10/12 19:23:11;;;;;;;15.17;9.10;;;;;;;6.25;93.72;100376.30;4849098;60;1138976;-81
2021/10/12 19:28:17;;;;;;;4.47;3.40;;;;;;;6.23;93.54;100375.54;4872828;60;1138996;-81
2021/10/12 19:33:25;;;;;;;6.70;3.80;;;;;;;6.18;93.50;100382.38;4860479;60;1136887;-84
2021/10/12 19:38:30;;;;;;;9.27;4.93;;;;;;;6.13;93.40;100377.87;4891020;59;1137028;-82
2021/10/12 19:43:36;;;;;;;5.27;3.63;;;;;;;6.15;93.39;100383.88;4928401;59;1136921;-86
2021/10/12 19:48:42;;;;;;;24.83;11.17;;;;;;;6.20;92.99;100385.76;4901755;59;1137105;-86
2021/10/12 19:53:50;;;;;;;36.23;13.63;;;;;;;6.18;93.05;100384.16;4917793;59;1141097;-87
2021/10/12 19:58:55;;;;;;;8.00;5.03;;;;;;;6.20;92.92;100393.64;4919356;59;1138926;-87
2021/10/12 20:04:04;;;;;;;4.90;2.83;;;;;;;6.17;92.36;100397.75;4915079;59;1136326;-84
2021/10/12 20:09:08;;;;;;;7.20;3.70;;;;;;;6.24;92.52;100404.34;4944412;59;1136884;-89
2021/10/12 20:14:14;;;;;;;5.37;3.77;;;;;;;6.21;92.14;100405.83;4921602;59;1136888;-82
2021/10/12 20:24:45;;;;;;;9.33;4.70;;;;;;;6.32;92.60;100408.63;4917154;59;1135084;-87
2021/10/12 20:29:51;;;;;;;12.47;8.07;;;;;;;6.36;91.82;100411.92;4916939;59;1137101;-81
2021/10/12 20:34:58;;;;;;;11.03;5.00;;;;;;;6.37;91.73;100418.02;4897867;59;1138932;-86
2021/10/12 20:40:04;;;;;;;9.20;5.67;;;;;;;6.31;91.34;100423.17;4827646;60;1139259;-83
2021/10/12 20:45:10;;;;;;;8.65;5.55;;;;;;;6.21;90.92;100436.50;4807689;60;1135094;-83
2021/10/12 20:50:16;;;;;;;9.70;5.53;;;;;;;6.15;91.00;100440.33;4800837;60;1136932;-84
2021/10/12 20:55:23;;;;;;;8.80;4.00;;;;;;;6.05;90.94;100438.36;4727942;61;1136981;-87
2021/10/12 21:00:28;;;;;;;8.77;4.53;;;;;;;5.93;91.36;100440.80;4715897;61;1136954;-83
2021/10/12 21:05:34;;;;;;;9.63;4.60;;;;;;;5.85;91.86;100444.75;4766321;61;1134899;-90
2021/10/12 21:10:41;;;;;;;18.00;3.97;;;;;;;5.78;92.04;100450.01;4870546;60;1136927;-88
2021/10/12 21:15:47;;;;;;;7.30;3.93;;;;;;;5.73;92.40;100462.08;4858987;59;1138939;-88
2021/10/12 21:20:53;;;;;;;9.00;4.90;;;;;;;5.69;92.50;100462.33;4872374;60;1135144;-82
2021/10/12 21:25:59;;;;;;;9.37;4.10;;;;;;;5.65;92.47;100458.57;4900996;60;1134812;-85
2021/10/12 21:31:04;;;;;;;9.53;5.30;;;;;;;5.66;92.58;100460.73;4901820;60;1134833;-85
2021/10/12 21:36:10;;;;;;;9.03;4.87;;;;;;;5.61;92.82;100461.48;4901445;60;1134812;-84
2021/10/12 21:41:16;;;;;;;6.23;4.10;;;;;;;5.59;92.70;100473.84;4901588;60;1134809;-83
2021/10/12 21:46:22;;;;;;;9.90;5.60;;;;;;;5.59;92.61;100471.22;4900743;60;1134831;-83
2021/10/12 21:51:28;;;;;;;10.07;4.33;;;;;;;5.55;92.56;100465.76;4900843;60;1134950;-80
2021/10/12 21:56:34;;;;;;;14.37;5.63;;;;;;;5.51;92.46;100483.91;4900679;59;1134799;-86
2021/10/12 22:01:40;;;;;;;8.48;4.62;;;;;;;5.51;92.45;100476.05;4904072;59;1136951;-84
2021/10/12 22:06:46;;;;;;;7.40;3.77;;;;;;;5.53;92.33;100471.09;4900369;60;1134826;-84
2021/10/12 22:11:52;;;;;;;7.50;3.87;;;;;;;5.42;92.33;100472.64;4900464;60;1132751;-83
2021/10/12 22:16:57;;;;;;;7.17;3.60;;;;;;;5.31;92.33;100473.27;4896406;59;1134998;-88
2021/10/12 22:22:03;;;;;;;15.43;9.83;;;;;;;5.22;92.30;100471.14;4900242;60;1134821;-86
2021/10/12 22:27:09;;;;;;;10.20;6.75;;;;;;;5.14;92.52;100467.66;4900279;59;1134755;-86
2021/10/12 22:32:15;;;;;;;6.17;3.77;;;;;;;5.15;92.72;100469.81;4837914;60;1136922;-88
2021/10/12 22:37:21;;;;;;;7.27;4.47;;;;;;;5.24;93.20;100476.69;4831718;59;1135260;-80
2021/10/12 22:42:27;;;;;;;7.67;5.70;;;;;;;5.34;93.13;100487.98;4831630;59;1132802;-82
2021/10/12 22:47:33;;;;;;;7.93;5.63;;;;;;;5.31;92.81;100490.31;4831761;61;1132828;-86
2021/10/12 22:52:39;;;;;;;27.57;17.03;;;;;;;5.25;92.30;100489.33;4874292;60;1132706;-82
2021/10/12 22:57:45;;;;;;;9.33;5.77;;;;;;;5.14;92.07;100493.88;4893677;60;1136931;-88
2021/10/12 23:02:52;;;;;;;31.15;19.00;;;;;;;5.03;92.17;100499.34;4909914;59;1134820;-86
2021/10/12 23:07:58;;;;;;;19.55;9.50;;;;;;;4.97;92.22;100501.81;4893418;60;1141129;-84
2021/10/12 23:13:04;;;;;;;8.88;3.90;;;;;;;4.93;92.16;100497.66;4893415;60;1139385;-85
2021/10/12 23:18:11;;;;;;;2.90;2.60;;;;;;;4.81;92.06;100499.64;4867157;60;1134785;-88
2021/10/12 23:23:17;;;;;;;9.03;3.43;;;;;;;4.73;92.17;100496.14;4914234;60;1135004;-83
2021/10/12 23:28:22;;;;;;;3.67;3.10;;;;;;;4.68;91.92;100498.62;4921878;59;1136816;-85
2021/10/12 23:33:29;;;;;;;8.57;3.50;;;;;;;4.60;91.69;100506.87;4921532;59;1137007;-88
2021/10/12 23:38:35;;;;;;;5.22;3.22;;;;;;;4.52;91.97;100509.06;4921583;59;1134766;-88
2021/10/12 23:43:40;;;;;;;8.57;3.67;;;;;;;4.45;91.98;100499.36;4921097;60;1134889;-81